createdAt,value
2018-06-02T00:02:04.000Z,58.59
2018-06-02T00:06:06.482Z,58.56
2018-06-02T00:10:08.968Z,58.66
2018-06-02T00:14:11.449Z,58.66
2018-06-02T00:18:13.934Z,58.71
2018-06-02T00:22:16.413Z,58.58
2018-06-02T00:26:18.893Z,58.80
2018-06-02T00:30:21.375Z,58.77
2018-06-02T00:34:23.836Z,58.88
2018-06-02T00:38:26.323Z,58.93
2018-06-02T00:42:28.818Z,59.06
2018-06-02T00:46:31.276Z,59.04
2018-06-02T00:50:33.770Z,59.03
2018-06-02T00:54:48.035Z,59.04
2018-06-02T00:58:50.533Z,59.01
2018-06-02T01:02:53.009Z,59.12
2018-06-02T01:06:55.496Z,59.32
2018-06-02T01:10:57.951Z,59.34
2018-06-02T01:15:00.439Z,59.32
2018-06-02T01:19:02.899Z,59.29
2018-06-02T01:23:05.390Z,59.31
2018-06-02T01:27:07.879Z,59.38
2018-06-02T01:31:10.334Z,59.63
2018-06-02T01:35:12.816Z,59.73
2018-06-02T01:39:15.292Z,59.84
2018-06-02T01:43:17.775Z,59.89
2018-06-02T01:47:20.240Z,59.91
2018-06-02T01:51:22.719Z,60.04
2018-06-02T01:55:25.205Z,60.05
2018-06-02T01:59:27.721Z,60.17
2018-06-02T02:03:30.176Z,60.27
2018-06-02T02:07:32.659Z,60.34
2018-06-02T02:11:35.143Z,60.32
2018-06-02T02:15:37.626Z,60.28
2018-06-02T02:19:40.108Z,60.29
2018-06-02T02:23:42.597Z,60.27
2018-06-02T02:27:45.051Z,60.45
2018-06-02T02:31:47.540Z,60.49
2018-06-02T02:35:50.037Z,60.61
2018-06-02T02:39:52.528Z,60.65
2018-06-02T02:43:54.973Z,60.67
2018-06-02T02:47:57.459Z,60.73
2018-06-02T02:51:59.917Z,60.75
2018-06-02T02:56:02.397Z,60.82
2018-06-02T03:00:04.887Z,60.90
2018-06-02T03:04:07.378Z,60.92
2018-06-02T03:08:09.866Z,60.96
2018-06-02T03:12:12.347Z,60.98
2018-06-02T03:16:14.831Z,60.96
2018-06-02T03:20:17.286Z,61.01
2018-06-02T03:24:19.763Z,61.03
2018-06-02T03:28:22.250Z,60.94
2018-06-02T03:32:24.735Z,60.93
2018-06-02T03:36:28.079Z,61.00
2018-06-02T03:40:30.560Z,60.97
2018-06-02T03:44:33.048Z,61.07
2018-06-02T03:48:35.544Z,61.04
2018-06-02T03:52:37.994Z,60.96
2018-06-02T03:56:40.462Z,61.06
2018-06-02T04:00:42.933Z,61.06
2018-06-02T04:04:45.418Z,61.00
2018-06-02T04:08:47.914Z,60.99
2018-06-02T04:12:50.385Z,61.07
2018-06-02T04:16:52.878Z,61.12
2018-06-02T04:20:55.362Z,60.92
2018-06-02T04:24:57.847Z,60.79
2018-06-02T04:29:00.304Z,60.65
2018-06-02T04:33:02.795Z,60.23
2018-06-02T04:37:05.278Z,59.83
2018-06-02T04:41:07.733Z,59.85
2018-06-02T04:45:10.220Z,59.88
2018-06-02T04:49:12.716Z,59.91
2018-06-02T04:53:15.167Z,59.69
2018-06-02T04:57:17.655Z,59.55
2018-06-02T05:01:20.106Z,59.36
2018-06-02T05:05:22.580Z,59.04
2018-06-02T05:09:25.064Z,58.72
2018-06-02T05:13:27.547Z,58.32
2018-06-02T05:17:30.029Z,57.46
2018-06-02T05:21:32.508Z,56.40
2018-06-02T05:25:34.991Z,56.11
2018-06-02T05:29:37.470Z,55.27
2018-06-02T05:33:39.965Z,54.66
2018-06-02T05:37:42.463Z,54.01
2018-06-02T05:41:44.918Z,53.00
2018-06-02T05:45:47.400Z,52.56
2018-06-02T05:49:49.894Z,52.16
2018-06-02T05:53:52.370Z,51.35
2018-06-02T05:57:54.861Z,51.09
2018-06-02T06:01:57.326Z,50.60
2018-06-02T06:05:59.822Z,49.92
2018-06-02T06:10:02.314Z,50.08
2018-06-02T06:14:04.774Z,49.37
2018-06-02T06:18:07.265Z,48.98
2018-06-02T06:22:09.715Z,48.68
2018-06-02T06:26:12.201Z,48.44
2018-06-02T06:30:14.689Z,47.68
2018-06-02T06:34:17.160Z,47.29
2018-06-02T06:38:19.643Z,47.38
2018-06-02T06:42:22.110Z,46.99
2018-06-02T06:46:24.598Z,46.75
2018-06-02T06:50:27.080Z,46.58
2018-06-02T06:54:29.571Z,47.03
2018-06-02T06:58:32.058Z,46.52
2018-06-02T07:02:34.512Z,45.57
2018-06-02T07:06:36.990Z,46.09
2018-06-02T07:10:39.483Z,45.83
2018-06-02T07:14:41.970Z,46.22
2018-06-02T07:18:44.458Z,46.45
2018-06-02T07:22:46.942Z,46.17
2018-06-02T07:26:49.438Z,46.50
2018-06-02T07:30:52.006Z,46.42
2018-06-02T07:34:54.492Z,46.02
2018-06-02T07:38:56.953Z,45.96
2018-06-02T07:42:59.434Z,45.47
2018-06-02T07:47:01.927Z,45.10
2018-06-02T07:51:04.390Z,45.17
2018-06-02T07:55:06.889Z,44.39
2018-06-02T07:59:09.373Z,44.36
2018-06-02T08:03:11.842Z,43.61
2018-06-02T08:07:14.326Z,43.76
2018-06-02T08:11:16.809Z,44.29
2018-06-02T08:15:19.298Z,44.25
2018-06-02T08:19:21.778Z,44.14
2018-06-02T08:23:24.276Z,43.99
2018-06-02T08:27:26.754Z,44.34
2018-06-02T08:31:29.220Z,44.09
2018-06-02T08:35:31.703Z,44.50
2018-06-02T08:39:34.201Z,44.58
2018-06-02T08:43:36.691Z,44.50
2018-06-02T08:47:39.157Z,44.82
2018-06-02T08:51:41.642Z,44.12
2018-06-02T08:55:45.051Z,44.90
2018-06-02T08:59:47.539Z,44.63
2018-06-02T09:03:50.041Z,44.92
2018-06-02T09:07:52.517Z,45.23
2018-06-02T09:11:55.002Z,46.27
2018-06-02T09:15:57.490Z,46.51
2018-06-02T09:19:59.972Z,45.92
2018-06-02T09:24:02.488Z,46.30
2018-06-02T09:28:04.978Z,46.50
2018-06-02T09:32:07.435Z,46.93
2018-06-02T09:36:10.888Z,46.31
2018-06-02T09:40:13.374Z,45.99
2018-06-02T09:44:15.887Z,46.21
2018-06-02T09:48:18.343Z,45.47
2018-06-02T09:52:20.833Z,44.73
2018-06-02T09:56:23.287Z,44.73
2018-06-02T10:00:25.784Z,43.54
2018-06-02T10:04:28.284Z,43.06
2018-06-02T10:08:30.774Z,42.32
2018-06-02T10:12:33.234Z,43.03
2018-06-02T10:16:35.722Z,43.00
2018-06-02T10:20:38.224Z,41.72
2018-06-02T10:24:40.773Z,40.81
2018-06-02T10:28:43.280Z,41.09
2018-06-02T10:32:45.741Z,40.97
2018-06-02T10:36:48.231Z,40.91
2018-06-02T10:40:50.699Z,41.64
2018-06-02T10:44:53.183Z,41.88
2018-06-02T10:48:55.679Z,41.72
2018-06-02T10:52:58.182Z,42.67
2018-06-02T10:57:00.675Z,41.77
2018-06-02T11:01:03.166Z,42.09
2018-06-02T11:05:05.621Z,42.05
2018-06-02T11:09:08.147Z,42.25
2018-06-02T11:13:10.570Z,42.87
2018-06-02T11:17:13.056Z,42.21
2018-06-02T11:21:15.542Z,41.43
2018-06-02T11:25:18.019Z,41.91
2018-06-02T11:29:20.510Z,41.08
2018-06-02T11:33:22.966Z,42.52
2018-06-02T11:37:25.449Z,42.18
2018-06-02T11:41:27.927Z,42.77
2018-06-02T11:45:30.418Z,42.30
2018-06-02T11:49:32.882Z,41.70
2018-06-02T11:53:35.365Z,42.32
2018-06-02T11:57:37.852Z,41.70
2018-06-02T12:01:40.328Z,42.70
2018-06-02T12:05:42.812Z,42.82
2018-06-02T12:09:45.299Z,41.99
2018-06-02T12:13:47.785Z,41.35
2018-06-02T12:17:50.261Z,41.65
2018-06-02T12:21:52.714Z,41.26
2018-06-02T12:25:55.189Z,41.03
2018-06-02T12:29:57.674Z,41.27
2018-06-02T12:34:00.164Z,41.54
2018-06-02T12:38:02.621Z,40.72
2018-06-02T12:42:05.097Z,41.15
2018-06-02T12:46:08.558Z,40.96
2018-06-02T12:50:11.019Z,40.85
2018-06-02T12:54:13.515Z,41.77
2018-06-02T12:58:16.002Z,42.42
2018-06-02T13:02:18.477Z,42.65
2018-06-02T13:06:20.956Z,42.50
2018-06-02T13:10:23.443Z,42.27
2018-06-02T13:14:25.939Z,42.91
2018-06-02T13:18:28.395Z,42.56
2018-06-02T13:22:30.867Z,42.76
2018-06-02T13:26:33.355Z,42.58
2018-06-02T13:30:35.842Z,43.08
2018-06-02T13:34:38.330Z,43.38
2018-06-02T13:38:40.791Z,43.17
2018-06-02T13:42:43.285Z,43.45
2018-06-02T13:46:45.764Z,43.10
2018-06-02T13:50:48.282Z,43.37
2018-06-02T13:54:50.787Z,44.18
2018-06-02T13:58:53.240Z,44.23
2018-06-02T14:02:55.726Z,44.22
2018-06-02T14:06:58.209Z,44.16
2018-06-02T14:11:00.695Z,44.68
2018-06-02T14:15:03.179Z,44.81
2018-06-02T14:19:05.634Z,44.66
2018-06-02T14:23:08.375Z,45.31
2018-06-02T14:27:10.855Z,45.82
2018-06-02T14:31:13.339Z,45.74
2018-06-02T14:35:15.816Z,45.87
2018-06-02T14:39:18.296Z,45.97
2018-06-02T14:43:20.816Z,45.70
2018-06-02T14:47:23.269Z,46.00
2018-06-02T14:51:25.798Z,46.02
2018-06-02T14:55:28.259Z,46.43
2018-06-02T14:59:30.758Z,46.28
2018-06-02T15:03:33.268Z,46.32
2018-06-02T15:07:35.769Z,47.11
2018-06-02T15:11:38.290Z,45.13
2018-06-02T15:15:40.782Z,42.64
2018-06-02T15:19:43.282Z,43.59
2018-06-02T15:23:45.781Z,43.45
2018-06-02T15:27:48.277Z,42.96
2018-06-02T15:31:50.769Z,42.77
2018-06-02T15:35:53.252Z,40.31
2018-06-02T15:39:55.711Z,40.07
2018-06-02T15:43:58.195Z,41.14
2018-06-02T15:48:00.685Z,41.08
2018-06-02T15:52:03.162Z,41.64
2018-06-02T15:56:07.146Z,41.75
2018-06-02T16:00:09.664Z,42.44
2018-06-02T16:04:12.149Z,43.05
2018-06-02T16:08:14.647Z,43.04
2018-06-02T16:12:17.129Z,43.48
2018-06-02T16:16:19.617Z,43.12
2018-06-02T16:20:22.102Z,43.64
2018-06-02T16:24:24.577Z,43.34
2018-06-02T16:28:27.036Z,43.22
2018-06-02T16:32:29.527Z,43.29
2018-06-02T16:36:32.000Z,42.62
2018-06-02T16:40:34.486Z,43.35
2018-06-02T16:44:36.954Z,43.20
2018-06-02T16:48:39.471Z,42.61
2018-06-02T16:52:41.961Z,43.01
2018-06-02T16:56:44.472Z,41.75
2018-06-02T17:00:46.986Z,41.88
2018-06-02T17:04:49.481Z,40.74
2018-06-02T17:08:51.980Z,40.15
2018-06-02T17:12:54.466Z,40.15
2018-06-02T17:16:56.923Z,39.69
2018-06-02T17:20:59.399Z,39.37
2018-06-02T17:25:01.855Z,39.79
2018-06-02T17:29:04.336Z,39.83
2018-06-02T17:33:06.824Z,39.96
2018-06-02T17:37:09.280Z,40.36
2018-06-02T17:41:11.774Z,40.41
2018-06-02T17:45:14.246Z,40.55
2018-06-02T17:49:16.731Z,40.72
2018-06-02T17:53:19.217Z,41.29
2018-06-02T17:57:21.710Z,41.86
2018-06-02T18:01:24.218Z,42.30
2018-06-02T18:05:26.702Z,42.92
2018-06-02T18:09:29.189Z,42.97
2018-06-02T18:13:31.770Z,43.22
2018-06-02T18:17:34.245Z,43.34
2018-06-02T18:21:36.735Z,43.30
2018-06-02T18:25:39.203Z,43.75
2018-06-02T18:29:41.700Z,43.37
2018-06-02T18:33:44.191Z,43.42
2018-06-02T18:37:46.691Z,43.70
2018-06-02T18:41:49.151Z,43.93
2018-06-02T18:45:51.643Z,44.07
2018-06-02T18:49:54.141Z,44.45
2018-06-02T18:53:56.626Z,44.54
2018-06-02T18:57:59.117Z,44.25
2018-06-02T19:02:01.603Z,44.77
2018-06-02T19:06:04.082Z,44.88
2018-06-02T19:10:06.699Z,44.87
2018-06-02T19:14:09.210Z,45.09
2018-06-02T19:18:11.658Z,45.40
2018-06-02T19:22:14.140Z,45.25
2018-06-02T19:26:16.603Z,45.33
2018-06-02T19:30:19.095Z,45.42
2018-06-02T19:34:21.555Z,45.49
2018-06-02T19:38:24.033Z,45.77
2018-06-02T19:42:26.519Z,46.01
2018-06-02T19:46:29.007Z,46.21
2018-06-02T19:50:31.503Z,46.76
2018-06-02T19:54:34.037Z,46.97
2018-06-02T19:58:36.542Z,46.99
2018-06-02T20:02:39.010Z,46.85
2018-06-02T20:06:41.532Z,46.73
2018-06-02T20:10:44.015Z,46.90
2018-06-02T20:14:46.528Z,46.88
2018-06-02T20:18:49.010Z,47.76
2018-06-02T20:22:51.474Z,47.77
2018-06-02T20:26:53.956Z,47.71
2018-06-02T20:30:56.441Z,47.71
2018-06-02T20:34:58.926Z,47.86
2018-06-02T20:39:01.422Z,47.82
2018-06-02T20:43:03.911Z,47.14
2018-06-02T20:47:06.416Z,47.09
2018-06-02T20:51:08.895Z,46.97
2018-06-02T20:55:11.382Z,47.22
2018-06-02T20:59:13.841Z,47.28
2018-06-02T21:03:16.337Z,46.98
2018-06-02T21:07:18.833Z,47.03
2018-06-02T21:11:21.320Z,47.07
2018-06-02T21:15:23.789Z,47.11
2018-06-02T21:19:26.268Z,47.23
2018-06-02T21:23:28.755Z,47.26
2018-06-02T21:27:31.271Z,47.29
2018-06-02T21:31:33.752Z,47.18
2018-06-02T21:35:36.236Z,47.19
2018-06-02T21:39:38.717Z,47.23
2018-06-02T21:43:41.210Z,47.44
2018-06-02T21:47:43.680Z,47.62
2018-06-02T21:51:46.167Z,47.66
2018-06-02T21:55:48.628Z,47.72
2018-06-02T21:59:51.126Z,47.61
2018-06-02T22:03:53.604Z,47.88
2018-06-02T22:07:56.087Z,47.51
2018-06-02T22:11:58.574Z,47.43
2018-06-02T22:16:01.085Z,47.41
2018-06-02T22:20:03.578Z,47.33
2018-06-02T22:24:06.055Z,47.22
2018-06-02T22:28:08.544Z,47.28
2018-06-02T22:32:11.021Z,47.22
2018-06-02T22:36:13.520Z,47.35
2018-06-02T22:40:15.995Z,47.42
2018-06-02T22:44:18.481Z,47.49
2018-06-02T22:48:20.952Z,47.53
2018-06-02T22:52:23.450Z,47.73
2018-06-02T22:56:25.930Z,47.77
2018-06-02T23:00:28.499Z,47.87
2018-06-02T23:04:31.053Z,48.05
2018-06-02T23:08:33.541Z,48.18
2018-06-02T23:12:36.016Z,48.26
2018-06-02T23:16:38.501Z,48.32
2018-06-02T23:20:40.950Z,48.48
2018-06-02T23:24:43.431Z,48.71
2018-06-02T23:28:45.917Z,48.81
2018-06-02T23:32:48.402Z,48.99
2018-06-02T23:36:50.881Z,49.20
2018-06-02T23:40:53.366Z,49.33
2018-06-02T23:44:55.858Z,49.50
2018-06-02T23:48:58.342Z,49.72
2018-06-02T23:53:00.815Z,49.90
2018-06-02T23:57:03.309Z,50.09
